Terminal Aerodrome Forecast
Issued by NWS Greer, SC

Home | Current Version | Previous Version | Text Only | Print | Product List | Glossary On
Versions: 1 2 3 4 5 6 7 8 9 10 11 12 13 14 15 16 17 18 19 20 21 22 23 24 25 26 27 28 29 30 31 32 33 34 35 36 37
000
FTUS42 KGSP 112330
TAFCLT
TAF
KCLT 112330Z 1200/1306 20005KT P6SM SKC
     FM120900 23006KT P6SM SCT250
     FM121400 28011G18KT P6SM SCT040 SCT250
     FM121700 29012G20KT P6SM SCT050 SCT200
     FM130400 30009KT P6SM FEW250=

USA.gov is the U.S. government's official web portal to all federal, state and local government web resources and services.